createdAt,value
2022-08-07T00:00:26.351Z,27.09
2022-08-07T00:02:56.168Z,27.09
2022-08-07T00:05:24.609Z,27.09
2022-08-07T00:07:58.196Z,27.09
2022-08-07T00:10:30.438Z,27.10
2022-08-07T00:13:01.741Z,27.09
2022-08-07T00:15:37.636Z,27.09
2022-08-07T00:18:09.653Z,27.07
2022-08-07T00:20:49.418Z,27.08
2022-08-07T00:23:17.679Z,27.08
2022-08-07T00:25:58.951Z,27.09
2022-08-07T00:28:33.173Z,27.08
2022-08-07T00:31:05.811Z,27.07
2022-08-07T00:33:36.504Z,27.06
2022-08-07T00:36:06.491Z,27.07
2022-08-07T00:38:36.719Z,27.07
2022-08-07T00:41:09.978Z,27.06
2022-08-07T00:43:59.176Z,27.06
2022-08-07T00:46:32.906Z,27.05
2022-08-07T00:49:03.766Z,27.05
2022-08-07T00:51:56.883Z,27.06
2022-08-07T00:54:20.440Z,27.05
2022-08-07T00:56:51.103Z,27.05
2022-08-07T00:59:20.259Z,27.04
2022-08-07T01:02:03.826Z,27.04
2022-08-07T01:04:43.178Z,27.04
2022-08-07T01:07:11.840Z,27.04
2022-08-07T01:10:05.839Z,27.04
2022-08-07T01:12:31.018Z,27.03
2022-08-07T01:15:01.534Z,27.03
2022-08-07T01:17:32.545Z,27.04
2022-08-07T01:20:08.022Z,27.02
2022-08-07T01:22:46.978Z,27.03
2022-08-07T01:25:53.913Z,27.02
2022-08-07T01:28:15.602Z,27.03
2022-08-07T01:30:44.214Z,27.02
2022-08-07T01:33:14.518Z,27.01
2022-08-07T01:35:53.398Z,27.02
2022-08-07T01:38:26.270Z,27.02
2022-08-07T01:41:02.600Z,27.01
2022-08-07T01:43:34.575Z,27.01
2022-08-07T01:46:08.245Z,27.01
2022-08-07T01:48:46.812Z,27.01
2022-08-07T01:51:39.240Z,26.99
2022-08-07T01:54:33.354Z,27.00
2022-08-07T01:57:03.762Z,26.96
2022-08-07T01:59:36.091Z,26.96
2022-08-07T02:02:06.941Z,26.94
2022-08-07T02:04:56.040Z,26.94
2022-08-07T02:07:29.973Z,26.92
2022-08-07T02:10:15.128Z,26.92
2022-08-07T02:12:46.505Z,26.90
2022-08-07T02:15:27.905Z,26.91
2022-08-07T02:17:56.662Z,26.89
2022-08-07T02:20:24.788Z,26.88
2022-08-07T02:22:59.640Z,26.89
2022-08-07T02:26:10.388Z,26.88
2022-08-07T02:28:25.314Z,26.87
2022-08-07T02:30:56.684Z,26.87
2022-08-07T02:33:25.174Z,26.87
2022-08-07T02:36:28.755Z,26.86
2022-08-07T02:38:59.644Z,26.87
2022-08-07T02:41:33.646Z,26.86
2022-08-07T02:44:07.164Z,26.86
2022-08-07T02:46:37.156Z,26.85
2022-08-07T02:49:56.169Z,26.84
2022-08-07T02:52:06.019Z,26.85
2022-08-07T02:54:37.960Z,26.84
2022-08-07T02:57:07.787Z,26.84
2022-08-07T02:59:35.963Z,26.84
2022-08-07T03:02:07.616Z,26.84
2022-08-07T03:04:37.783Z,26.83
2022-08-07T03:07:10.441Z,26.85
2022-08-07T03:09:44.496Z,26.83
2022-08-07T03:12:21.725Z,26.83
2022-08-07T03:14:52.410Z,26.84
2022-08-07T03:17:22.118Z,26.82
2022-08-07T03:19:54.851Z,26.83
2022-08-07T03:22:29.543Z,26.81
2022-08-07T03:24:59.982Z,26.82
2022-08-07T03:27:58.846Z,26.81
2022-08-07T03:30:20.828Z,26.79
2022-08-07T03:32:57.108Z,26.80
2022-08-07T03:35:44.045Z,26.81
2022-08-07T03:38:16.917Z,26.80
2022-08-07T03:40:53.820Z,26.80
2022-08-07T03:43:26.898Z,26.79
2022-08-07T03:46:02.770Z,26.79
2022-08-07T03:48:31.604Z,26.78
2022-08-07T03:51:00.613Z,26.78
2022-08-07T03:54:33.014Z,26.78
2022-08-07T03:56:33.290Z,26.78
2022-08-07T03:59:09.311Z,26.78
2022-08-07T04:01:43.152Z,26.77
2022-08-07T04:04:17.247Z,26.76
2022-08-07T04:06:50.825Z,26.76
2022-08-07T04:09:23.051Z,26.75
2022-08-07T04:12:25.208Z,26.75
2022-08-07T04:14:47.771Z,26.74
2022-08-07T04:17:19.906Z,26.75
2022-08-07T04:19:50.921Z,26.75
2022-08-07T04:22:20.189Z,26.74
2022-08-07T04:24:51.411Z,26.74
2022-08-07T04:27:25.370Z,26.74
2022-08-07T04:30:02.230Z,26.73
2022-08-07T04:32:47.938Z,26.73
2022-08-07T04:35:17.929Z,26.73
2022-08-07T04:38:03.503Z,26.73
2022-08-07T04:40:36.460Z,26.71
2022-08-07T04:43:21.332Z,26.72
2022-08-07T04:46:25.795Z,26.72
2022-08-07T04:49:01.915Z,26.71
2022-08-07T04:51:38.251Z,26.70
2022-08-07T04:54:11.160Z,26.72
2022-08-07T04:58:12.325Z,26.71
2022-08-07T05:00:10.983Z,26.71
2022-08-07T05:02:25.825Z,26.70
2022-08-07T05:04:57.336Z,26.70
2022-08-07T05:07:30.573Z,26.70
2022-08-07T05:10:10.977Z,26.70
2022-08-07T05:12:52.800Z,26.69
2022-08-07T05:15:24.109Z,26.68
2022-08-07T05:18:06.240Z,26.68
2022-08-07T05:20:42.918Z,26.68
2022-08-07T05:23:15.531Z,26.68
2022-08-07T05:26:11.142Z,26.68
2022-08-07T05:28:35.148Z,26.67
2022-08-07T05:31:03.874Z,26.67
2022-08-07T05:33:36.853Z,26.67
2022-08-07T05:36:12.151Z,26.67
2022-08-07T05:39:00.168Z,26.67
2022-08-07T05:42:00.467Z,26.68
2022-08-07T05:44:29.194Z,26.68
2022-08-07T05:47:00.336Z,26.70
2022-08-07T05:49:40.469Z,26.72
2022-08-07T05:52:11.672Z,26.72
2022-08-07T05:54:53.835Z,26.73
2022-08-07T05:57:26.552Z,26.73
2022-08-07T05:59:59.624Z,26.66
2022-08-07T06:02:40.866Z,26.50
2022-08-07T06:05:15.844Z,26.40
2022-08-07T06:08:12.984Z,26.32
2022-08-07T06:10:38.312Z,26.27
2022-08-07T06:13:13.678Z,26.22
2022-08-07T06:15:44.564Z,26.22
2022-08-07T06:18:20.875Z,26.23
2022-08-07T06:22:15.984Z,26.23
2022-08-07T06:24:38.124Z,26.24
2022-08-07T06:26:30.090Z,26.25
2022-08-07T06:29:01.263Z,26.26
2022-08-07T06:31:38.526Z,26.26
2022-08-07T06:34:19.685Z,26.27
2022-08-07T06:36:51.928Z,26.27
2022-08-07T06:40:17.020Z,26.26
2022-08-07T06:42:13.107Z,26.25
2022-08-07T06:45:11.175Z,26.26
2022-08-07T06:47:57.213Z,26.25
2022-08-07T06:50:28.132Z,26.25
2022-08-07T06:53:04.264Z,26.25
2022-08-07T06:56:00.949Z,26.25
2022-08-07T06:58:27.669Z,26.26
2022-08-07T07:01:05.953Z,26.25
2022-08-07T07:03:49.018Z,26.24
2022-08-07T07:06:23.812Z,26.25
2022-08-07T07:08:56.829Z,26.23
2022-08-07T07:12:07.672Z,26.20
2022-08-07T07:14:15.076Z,26.17
2022-08-07T07:16:50.815Z,26.15
2022-08-07T07:19:55.653Z,26.13
2022-08-07T07:22:33.852Z,26.13
2022-08-07T07:25:13.996Z,26.13
2022-08-07T07:27:56.356Z,26.13
2022-08-07T07:30:38.520Z,26.12
2022-08-07T07:33:11.344Z,26.12
2022-08-07T07:35:54.267Z,26.11
2022-08-07T07:38:30.540Z,26.11
2022-08-07T07:41:03.184Z,26.12
2022-08-07T07:43:47.762Z,26.13
2022-08-07T07:46:38.023Z,26.13
2022-08-07T07:50:29.718Z,26.13
2022-08-07T07:51:59.602Z,26.13
2022-08-07T07:54:27.993Z,26.14
2022-08-07T07:56:58.173Z,26.15
2022-08-07T07:59:51.789Z,26.17
2022-08-07T08:02:22.577Z,26.17
2022-08-07T08:05:02.011Z,26.17
2022-08-07T08:07:35.687Z,26.17
2022-08-07T08:10:14.933Z,26.18
2022-08-07T08:13:03.065Z,26.18
2022-08-07T08:15:57.730Z,26.18
2022-08-07T08:18:21.050Z,26.16
2022-08-07T08:20:54.017Z,26.14
2022-08-07T08:23:39.739Z,26.13
2022-08-07T08:26:25.468Z,26.14
2022-08-07T08:28:56.769Z,26.13
2022-08-07T08:31:58.335Z,26.13
2022-08-07T08:34:26.792Z,26.13
2022-08-07T08:36:57.591Z,26.13
2022-08-07T08:39:39.559Z,26.15
2022-08-07T08:42:18.281Z,26.15
2022-08-07T08:44:53.996Z,26.17
2022-08-07T08:47:25.873Z,26.18
2022-08-07T08:50:04.619Z,26.18
2022-08-07T08:52:36.239Z,26.19
2022-08-07T08:55:54.675Z,26.21
2022-08-07T08:58:20.326Z,26.21
2022-08-07T09:00:57.823Z,26.21
2022-08-07T09:03:47.788Z,26.20
2022-08-07T09:06:22.836Z,26.22
2022-08-07T09:08:58.010Z,26.24
2022-08-07T09:11:43.497Z,26.24
2022-08-07T09:14:19.332Z,26.25
2022-08-07T09:17:12.144Z,26.27
2022-08-07T09:19:57.422Z,26.30
2022-08-07T09:24:30.560Z,26.32
2022-08-07T09:25:37.699Z,26.34
2022-08-07T09:29:24.514Z,26.35
2022-08-07T09:30:59.579Z,26.36
2022-08-07T09:33:56.566Z,26.38
2022-08-07T09:36:33.543Z,26.38
2022-08-07T09:39:27.316Z,26.38
2022-08-07T09:42:07.723Z,26.39
2022-08-07T09:47:24.179Z,26.41
2022-08-07T09:47:57.692Z,26.43
2022-08-07T09:50:31.784Z,26.44
2022-08-07T09:53:01.979Z,26.44
2022-08-07T09:56:03.786Z,26.43
2022-08-07T09:59:14.082Z,26.42
2022-08-07T10:01:54.737Z,26.44
2022-08-07T10:04:47.791Z,26.47
2022-08-07T10:07:52.434Z,26.49
2022-08-07T10:10:28.214Z,26.51
2022-08-07T10:14:00.111Z,26.52
2022-08-07T10:16:45.206Z,26.53
2022-08-07T10:19:24.419Z,26.56
2022-08-07T10:22:14.871Z,26.59
2022-08-07T10:24:59.552Z,26.62
2022-08-07T10:27:45.899Z,26.64
2022-08-07T10:30:17.081Z,26.67
2022-08-07T10:33:05.308Z,26.69
2022-08-07T10:35:55.837Z,26.71
2022-08-07T10:38:49.165Z,26.75
2022-08-07T10:41:46.968Z,26.76
2022-08-07T10:44:19.291Z,26.73
2022-08-07T10:47:03.199Z,26.71
2022-08-07T10:49:45.326Z,26.72
2022-08-07T10:52:22.639Z,26.72
2022-08-07T10:55:27.142Z,26.72
2022-08-07T10:58:04.997Z,26.68
2022-08-07T11:00:42.998Z,26.67
2022-08-07T11:03:15.431Z,26.67
2022-08-07T11:05:48.897Z,26.67
2022-08-07T11:08:29.116Z,26.67
2022-08-07T11:11:00.493Z,26.67
2022-08-07T11:14:44.338Z,26.70
2022-08-07T11:16:29.796Z,26.73
2022-08-07T11:19:11.249Z,26.76
2022-08-07T11:21:43.043Z,26.79
2022-08-07T11:24:15.300Z,26.79
2022-08-07T11:26:48.278Z,26.79
2022-08-07T11:29:41.865Z,26.79
2022-08-07T11:32:14.171Z,26.80
2022-08-07T11:34:55.272Z,26.82
2022-08-07T11:37:57.872Z,26.82
2022-08-07T11:40:49.653Z,26.83
2022-08-07T11:43:29.438Z,26.83
2022-08-07T11:46:17.005Z,26.84
2022-08-07T11:49:51.580Z,26.86
2022-08-07T11:51:51.576Z,26.87
2022-08-07T11:54:40.514Z,26.88
2022-08-07T11:57:57.833Z,26.90
2022-08-07T12:00:19.300Z,26.91
2022-08-07T12:03:41.377Z,26.91
2022-08-07T12:06:37.391Z,26.92
2022-08-07T12:09:16.167Z,26.92
2022-08-07T12:12:10.365Z,26.93
2022-08-07T12:14:43.889Z,26.94
2022-08-07T12:17:19.672Z,26.94
2022-08-07T12:19:56.320Z,26.97
2022-08-07T12:22:39.549Z,26.96
2022-08-07T12:26:02.822Z,26.99
2022-08-07T12:28:31.074Z,26.98
2022-08-07T12:31:17.151Z,26.97
2022-08-07T12:34:00.726Z,26.98
2022-08-07T12:36:33.130Z,26.97
2022-08-07T12:39:41.902Z,26.96
2022-08-07T12:41:52.246Z,26.92
2022-08-07T12:44:21.302Z,26.89
2022-08-07T12:46:59.048Z,26.87
2022-08-07T12:49:44.292Z,26.88
2022-08-07T12:52:28.899Z,26.90
2022-08-07T12:55:05.488Z,26.92
2022-08-07T12:58:00.527Z,26.95
2022-08-07T13:00:32.519Z,26.96
2022-08-07T13:03:13.132Z,26.97
2022-08-07T13:06:02.709Z,26.98
2022-08-07T13:08:42.917Z,27.00
2022-08-07T13:11:24.917Z,27.02
2022-08-07T13:13:59.684Z,27.02
2022-08-07T13:16:32.391Z,27.04
2022-08-07T13:19:11.395Z,27.05
2022-08-07T13:21:51.726Z,27.04
2022-08-07T13:24:30.507Z,27.05
2022-08-07T13:27:05.412Z,27.05
2022-08-07T13:29:42.279Z,27.06
2022-08-07T13:32:31.971Z,27.06
2022-08-07T13:35:08.743Z,27.07
2022-08-07T13:37:42.288Z,27.07
2022-08-07T13:40:36.702Z,27.08
2022-08-07T13:43:11.909Z,27.09
2022-08-07T13:46:22.131Z,27.09
2022-08-07T13:48:34.052Z,27.10
2022-08-07T13:51:27.548Z,27.09
2022-08-07T13:54:00.130Z,27.08
2022-08-07T13:56:36.084Z,27.06
2022-08-07T13:59:12.763Z,27.07
2022-08-07T14:01:50.828Z,27.08
2022-08-07T14:04:29.788Z,27.08
2022-08-07T14:07:09.251Z,27.09
2022-08-07T14:10:02.249Z,27.10
2022-08-07T14:12:33.102Z,27.10
2022-08-07T14:15:07.280Z,27.11
2022-08-07T14:18:23.417Z,27.11
2022-08-07T14:20:40.525Z,27.12
2022-08-07T14:23:31.527Z,27.12
2022-08-07T14:26:08.619Z,27.12
2022-08-07T14:28:57.501Z,27.13
2022-08-07T14:31:42.367Z,27.13
2022-08-07T14:34:20.141Z,27.15
2022-08-07T14:36:56.065Z,27.15
2022-08-07T14:40:15.557Z,27.15
2022-08-07T14:42:19.541Z,27.15
2022-08-07T14:44:59.762Z,27.17
2022-08-07T14:47:28.432Z,27.17
2022-08-07T14:49:59.153Z,27.17
2022-08-07T14:52:28.992Z,27.17
2022-08-07T14:54:57.624Z,27.17
2022-08-07T14:57:28.972Z,27.17
2022-08-07T15:03:16.644Z,27.16
2022-08-07T15:08:50.360Z,27.16
2022-08-07T15:11:53.290Z,27.16
2022-08-07T15:14:15.413Z,27.14
2022-08-07T15:20:30.798Z,27.14
2022-08-07T15:22:32.850Z,27.15
2022-08-07T15:25:18.335Z,27.14
2022-08-07T15:28:14.105Z,27.14
2022-08-07T15:33:33.799Z,27.14
2022-08-07T15:36:05.699Z,27.14
2022-08-07T15:42:42.357Z,27.13
2022-08-07T15:44:15.180Z,27.13
2022-08-07T15:46:51.741Z,27.12
2022-08-07T15:49:25.480Z,27.12
2022-08-07T15:52:29.799Z,27.12
2022-08-07T15:55:02.823Z,27.12
2022-08-07T15:57:39.961Z,27.11
2022-08-07T16:00:31.921Z,27.10
2022-08-07T16:03:03.956Z,27.09
2022-08-07T16:05:33.520Z,27.06
2022-08-07T16:08:32.272Z,27.05
2022-08-07T16:10:56.873Z,27.04
2022-08-07T16:14:06.346Z,27.03
2022-08-07T16:16:57.634Z,27.03
2022-08-07T16:19:59.535Z,27.01
2022-08-07T16:22:54.801Z,27.03
2022-08-07T16:25:55.425Z,27.03
2022-08-07T16:30:08.828Z,27.03
2022-08-07T16:31:50.919Z,27.04
2022-08-07T16:34:24.584Z,27.02
2022-08-07T16:38:06.627Z,27.02
2022-08-07T16:40:23.384Z,27.03
2022-08-07T16:43:01.212Z,27.02
2022-08-07T16:46:21.133Z,27.03
2022-08-07T16:50:20.148Z,27.04
2022-08-07T16:52:01.809Z,27.03
2022-08-07T16:54:54.202Z,27.02
2022-08-07T16:58:03.511Z,27.02
2022-08-07T17:00:29.860Z,27.01
2022-08-07T17:03:57.947Z,27.00
2022-08-07T17:06:30.739Z,26.99
2022-08-07T17:09:09.140Z,26.99
2022-08-07T17:12:01.273Z,26.99
2022-08-07T17:14:38.729Z,26.96
2022-08-07T17:17:12.229Z,26.95
2022-08-07T17:20:02.158Z,26.94
2022-08-07T17:22:36.314Z,26.93
2022-08-07T17:25:10.166Z,26.94
2022-08-07T17:27:50.966Z,26.93
2022-08-07T17:30:26.952Z,26.92
2022-08-07T17:34:08.366Z,26.93
2022-08-07T17:36:05.595Z,26.94
2022-08-07T17:38:47.670Z,26.93
2022-08-07T17:42:01.627Z,26.92
2022-08-07T17:44:15.658Z,26.94
2022-08-07T17:47:04.738Z,26.93
2022-08-07T17:49:45.239Z,26.93
2022-08-07T17:52:19.543Z,26.92
2022-08-07T17:54:53.494Z,26.92
2022-08-07T17:57:25.572Z,26.93
2022-08-07T18:00:34.349Z,26.91
2022-08-07T18:03:18.302Z,26.90
2022-08-07T18:06:01.379Z,26.89
2022-08-07T18:08:32.883Z,26.88
2022-08-07T18:12:17.962Z,26.87
2022-08-07T18:14:01.645Z,26.85
2022-08-07T18:16:34.110Z,26.84
2022-08-07T18:21:11.035Z,26.84
2022-08-07T18:22:14.990Z,26.82
2022-08-07T18:24:47.099Z,26.78
2022-08-07T18:27:55.064Z,26.77
2022-08-07T18:30:32.836Z,26.76
2022-08-07T18:33:55.159Z,26.75
2022-08-07T18:36:33.222Z,26.72
2022-08-07T18:40:08.089Z,26.70
2022-08-07T18:42:04.534Z,26.68
2022-08-07T18:45:40.101Z,26.68
2022-08-07T18:47:44.570Z,26.68
2022-08-07T18:50:45.707Z,26.66
2022-08-07T18:53:22.644Z,26.66
2022-08-07T18:56:13.868Z,26.64
2022-08-07T18:59:48.027Z,26.63
2022-08-07T19:02:34.513Z,26.61
2022-08-07T19:05:10.682Z,26.61
2022-08-07T19:07:51.707Z,26.61
2022-08-07T19:10:31.974Z,26.60
2022-08-07T19:13:21.488Z,26.60
2022-08-07T19:16:05.105Z,26.58
2022-08-07T19:18:53.161Z,26.58
2022-08-07T19:21:51.385Z,26.57
2022-08-07T19:24:30.165Z,26.58
2022-08-07T19:28:58.487Z,26.60
2022-08-07T19:31:05.261Z,26.63
2022-08-07T19:32:45.398Z,26.64
2022-08-07T19:35:18.577Z,26.67
2022-08-07T19:37:56.972Z,26.68
2022-08-07T19:40:31.861Z,26.69
2022-08-07T19:43:10.594Z,26.69
2022-08-07T19:46:07.170Z,26.70
2022-08-07T19:48:42.247Z,26.71
2022-08-07T19:51:19.845Z,26.71
2022-08-07T19:54:32.103Z,26.72
2022-08-07T19:58:03.626Z,26.73
2022-08-07T19:59:40.654Z,26.73
2022-08-07T20:02:24.156Z,26.73
2022-08-07T20:04:56.074Z,26.75
2022-08-07T20:07:46.066Z,26.75
2022-08-07T20:10:38.416Z,26.77
2022-08-07T20:13:06.112Z,26.77
2022-08-07T20:15:37.260Z,26.77
2022-08-07T20:18:14.611Z,26.79
2022-08-07T20:20:46.803Z,26.78
2022-08-07T20:23:33.125Z,26.79
2022-08-07T20:26:09.941Z,26.76
2022-08-07T20:28:39.458Z,26.76
2022-08-07T20:31:21.089Z,26.75
2022-08-07T20:33:56.765Z,26.75
2022-08-07T20:36:26.123Z,26.74
2022-08-07T20:39:00.834Z,26.74
2022-08-07T20:41:43.765Z,26.74
2022-08-07T20:44:14.232Z,26.73
2022-08-07T20:46:45.170Z,26.73
2022-08-07T20:49:58.159Z,26.72
2022-08-07T20:52:06.647Z,26.71
2022-08-07T20:54:45.701Z,26.71
2022-08-07T20:57:23.023Z,26.71
2022-08-07T21:00:07.235Z,26.71
2022-08-07T21:02:58.491Z,26.71
2022-08-07T21:05:52.629Z,26.71
2022-08-07T21:08:20.666Z,26.71
2022-08-07T21:11:10.787Z,26.69
2022-08-07T21:13:57.110Z,26.68
2022-08-07T21:16:31.929Z,26.68
2022-08-07T21:19:01.429Z,26.68
2022-08-07T21:21:33.275Z,26.68
2022-08-07T21:24:18.711Z,26.67
2022-08-07T21:26:52.084Z,26.67
2022-08-07T21:29:22.587Z,26.67
2022-08-07T21:32:47.903Z,26.66
2022-08-07T21:34:57.563Z,26.65
2022-08-07T21:37:57.214Z,26.66
2022-08-07T21:40:28.988Z,26.65
2022-08-07T21:43:06.968Z,26.65
2022-08-07T21:46:10.341Z,26.65
2022-08-07T21:48:41.480Z,26.64
2022-08-07T21:51:19.334Z,26.64
2022-08-07T21:53:52.992Z,26.64
2022-08-07T21:56:36.139Z,26.64
2022-08-07T21:59:09.647Z,26.63
2022-08-07T22:02:10.385Z,26.63
2022-08-07T22:04:28.952Z,26.62
2022-08-07T22:07:01.871Z,26.63
2022-08-07T22:09:38.160Z,26.62
2022-08-07T22:12:24.596Z,26.62
2022-08-07T22:14:59.358Z,26.63
2022-08-07T22:17:36.235Z,26.62
2022-08-07T22:20:08.915Z,26.63
2022-08-07T22:22:57.304Z,26.62
2022-08-07T22:25:28.288Z,26.60
2022-08-07T22:28:30.786Z,26.61
2022-08-07T22:30:59.599Z,26.60
2022-08-07T22:33:52.986Z,26.60
2022-08-07T22:36:46.448Z,26.59
2022-08-07T22:39:23.551Z,26.59
2022-08-07T22:42:04.175Z,26.59
2022-08-07T22:44:59.177Z,26.59
2022-08-07T22:47:49.359Z,26.58
2022-08-07T22:50:34.020Z,26.58
2022-08-07T22:53:26.820Z,26.58
2022-08-07T22:56:13.591Z,26.58
2022-08-07T22:58:50.820Z,26.57
2022-08-07T23:01:50.568Z,26.57
2022-08-07T23:06:09.488Z,26.57
2022-08-07T23:07:54.904Z,26.56
2022-08-07T23:10:38.269Z,26.56
2022-08-07T23:13:48.500Z,26.56
2022-08-07T23:16:44.681Z,26.56
2022-08-07T23:19:39.008Z,26.55
2022-08-07T23:22:31.131Z,26.55
2022-08-07T23:25:10.028Z,26.54
2022-08-07T23:28:20.239Z,26.54
2022-08-07T23:31:06.730Z,26.54
2022-08-07T23:34:36.301Z,26.54
2022-08-07T23:37:19.855Z,26.53
2022-08-07T23:39:41.218Z,26.54
2022-08-07T23:42:21.822Z,26.53
2022-08-07T23:45:03.589Z,26.53
2022-08-07T23:48:05.289Z,26.53
2022-08-07T23:50:37.869Z,26.54
2022-08-07T23:53:49.367Z,26.53
2022-08-07T23:56:14.760Z,26.54
2022-08-07T23:58:56.271Z,26.53
